Time;durP1;ratioP1;P1;durP2;ratioP2;P2;SDS_P1;SDS_P2;PMS_P1;PMS_P2;Temp;Humidity;BMP_temperature;BMP_pressure;BME280_temperature;BME280_humidity;BME280_pressure;Samples;Min_cycle;Max_cycle;Signal;HPM_P1;HPM_P2
2022/09/29 00:01:15;;;;;;;22.60;15.93;;;;;;;5.50;100.00;99874.22;4991463;28;20022;-61
2022/09/29 00:03:41;;;;;;;23.10;15.80;;;;;;;5.54;100.00;99883.50;4992369;28;20104;-60
2022/09/29 00:06:12;;;;;;;22.58;15.43;;;;;;;5.50;100.00;99882.44;4990847;28;20058;-60
2022/09/29 00:08:38;;;;;;;22.73;16.90;;;;;;;5.48;100.00;99882.75;4991702;28;20430;-60
2022/09/29 00:11:07;;;;;;;22.20;15.10;;;;;;;5.42;100.00;99876.50;4991317;28;20030;-59
2022/09/29 00:13:32;;;;;;;21.92;15.80;;;;;;;5.44;100.00;99881.69;4991537;28;20057;-60
2022/09/29 00:16:00;;;;;;;21.90;15.40;;;;;;;5.44;100.00;99877.03;4991352;28;20034;-60
2022/09/29 00:18:26;;;;;;;21.58;15.32;;;;;;;5.42;100.00;99884.72;4991756;28;20053;-60
2022/09/29 00:20:59;;;;;;;23.45;16.33;;;;;;;5.43;100.00;99882.81;4992776;28;20037;-60
2022/09/29 00:23:25;;;;;;;22.45;15.25;;;;;;;5.40;100.00;99884.22;4991609;28;20034;-60
2022/09/29 00:26:09;;;;;;;23.33;16.70;;;;;;;5.29;100.00;99869.81;4991397;28;20033;-59
2022/09/29 00:28:36;;;;;;;22.10;15.68;;;;;;;5.34;100.00;99876.38;4991724;28;20026;-60
2022/09/29 00:31:03;;;;;;;23.73;16.00;;;;;;;5.28;100.00;99879.16;4991338;28;20065;-60
2022/09/29 00:33:33;;;;;;;21.98;15.98;;;;;;;5.27;100.00;99879.47;4999603;28;20061;-60
2022/09/29 00:36:07;;;;;;;21.63;15.65;;;;;;;5.17;100.00;99872.16;5011883;28;20026;-59
2022/09/29 00:38:34;;;;;;;22.90;15.90;;;;;;;5.22;100.00;99876.78;5012158;28;20053;-59
2022/09/29 00:41:00;;;;;;;23.00;15.90;;;;;;;5.16;100.00;99873.28;5010233;28;20029;-60
2022/09/29 00:43:50;;;;;;;22.25;14.90;;;;;;;5.13;100.00;99874.69;5010607;28;20508;-60
2022/09/29 00:46:19;;;;;;;21.60;15.45;;;;;;;5.03;100.00;99869.31;5010816;28;20504;-60
2022/09/29 00:48:46;;;;;;;22.23;15.55;;;;;;;4.97;100.00;99859.53;5011014;28;20551;-60
2022/09/29 00:51:13;;;;;;;21.95;15.18;;;;;;;5.00;100.00;99876.22;5010861;28;20088;-60
2022/09/29 00:53:39;;;;;;;23.60;16.58;;;;;;;4.95;100.00;99878.19;5011216;28;20477;-60
2022/09/29 00:56:08;;;;;;;21.77;15.45;;;;;;;4.90;100.00;99881.00;5011773;28;20026;-60
2022/09/29 00:58:43;;;;;;;22.35;16.50;;;;;;;4.79;100.00;99864.69;5010505;28;20113;-61
2022/09/29 01:01:10;;;;;;;23.00;16.40;;;;;;;4.86;100.00;99880.78;5010832;28;20057;-60
2022/09/29 01:03:39;;;;;;;24.65;16.17;;;;;;;4.71;100.00;99857.09;5011377;28;20040;-60
2022/09/29 01:06:16;;;;;;;21.00;16.13;;;;;;;4.79;100.00;99881.13;5011160;28;20057;-60
2022/09/29 01:08:47;;;;;;;22.08;15.30;;;;;;;4.77;100.00;99866.09;5010830;28;20105;-60
2022/09/29 01:11:14;;;;;;;23.95;16.90;;;;;;;4.75;100.00;99874.59;5009760;28;20030;-60
2022/09/29 01:13:40;;;;;;;21.63;15.25;;;;;;;4.74;100.00;99875.69;5011018;28;20496;-60
2022/09/29 01:16:06;;;;;;;21.67;15.93;;;;;;;4.74;100.00;99872.94;5010846;28;20046;-60
2022/09/29 01:18:32;;;;;;;22.25;16.52;;;;;;;4.74;100.00;99866.66;5010969;28;20030;-60
2022/09/29 01:21:09;;;;;;;22.40;15.80;;;;;;;4.73;100.00;99873.25;5010896;28;20037;-60
2022/09/29 01:23:43;;;;;;;21.80;14.95;;;;;;;4.68;100.00;99883.13;5010440;28;20038;-60
2022/09/29 01:26:28;;;;;;;20.90;14.98;;;;;;;4.66;100.00;99877.16;5009483;28;20029;-60
2022/09/29 01:29:11;;;;;;;22.92;15.07;;;;;;;4.62;100.00;99881.56;5010560;28;20080;-60
2022/09/29 01:31:42;;;;;;;23.13;16.80;;;;;;;4.59;100.00;99882.13;5010885;28;20034;-60
2022/09/29 01:34:35;;;;;;;22.88;14.88;;;;;;;4.55;100.00;99889.31;5010677;28;20049;-60
2022/09/29 01:37:14;;;;;;;24.30;15.77;;;;;;;4.52;100.00;99882.50;5011540;28;20112;-60
2022/09/29 01:39:54;;;;;;;21.95;15.63;;;;;;;4.48;100.00;99875.97;5014346;28;20025;-60
2022/09/29 01:42:27;;;;;;;21.58;15.43;;;;;;;4.37;100.00;99875.25;5014689;28;20052;-60
2022/09/29 01:45:18;;;;;;;21.90;14.85;;;;;;;4.44;100.00;99888.59;5014891;28;20030;-59
2022/09/29 01:47:48;;;;;;;22.83;14.82;;;;;;;4.39;100.00;99885.09;5013524;28;20086;-60
2022/09/29 01:50:21;;;;;;;21.38;14.05;;;;;;;4.30;100.00;99869.28;5014188;28;20017;-60
2022/09/29 01:52:52;;;;;;;21.85;15.27;;;;;;;4.41;100.00;99888.34;5014786;28;20034;-60
2022/09/29 01:55:22;;;;;;;23.58;16.15;;;;;;;4.39;100.00;99893.31;5014458;28;20494;-60
2022/09/29 01:57:56;;;;;;;23.67;15.93;;;;;;;4.37;100.00;99891.69;5013096;28;20048;-61
2022/09/29 02:00:22;;;;;;;21.88;15.30;;;;;;;4.37;100.00;99888.13;5014943;28;20068;-60
2022/09/29 02:02:57;;;;;;;23.27;15.80;;;;;;;4.28;100.00;99878.88;5014331;28;20022;-60
2022/09/29 02:05:32;;;;;;;22.58;15.90;;;;;;;4.28;100.00;99881.63;5014161;28;20037;-59
2022/09/29 02:08:06;;;;;;;23.90;15.90;;;;;;;4.26;100.00;99875.63;5013676;28;20030;-60
2022/09/29 02:10:37;;;;;;;23.00;16.75;;;;;;;4.27;100.00;99885.47;5012883;28;20042;-60
2022/09/29 02:13:07;;;;;;;22.88;16.23;;;;;;;4.30;100.00;99891.19;5014051;28;20037;-60
2022/09/29 02:15:37;;;;;;;22.73;16.85;;;;;;;4.29;100.00;99886.84;5013829;28;20033;-60
2022/09/29 02:18:10;;;;;;;23.40;16.42;;;;;;;4.29;100.00;99886.84;5012043;28;20430;-60
2022/09/29 02:20:36;;;;;;;23.10;16.08;;;;;;;4.27;100.00;99885.47;5013937;28;20053;-60
2022/09/29 02:23:03;;;;;;;23.30;16.92;;;;;;;4.25;100.00;99888.50;5012116;28;20065;-60
2022/09/29 02:25:28;;;;;;;23.90;16.65;;;;;;;4.22;100.00;99886.31;5014296;28;20110;-59
2022/09/29 02:27:54;;;;;;;24.40;16.88;;;;;;;4.19;100.00;99886.91;5012266;28;20092;-59
2022/09/29 02:30:19;;;;;;;25.10;16.50;;;;;;;4.20;100.00;99896.78;5013787;28;20026;-60
2022/09/29 02:32:46;;;;;;;23.27;17.17;;;;;;;4.20;100.00;99889.38;5014232;28;20382;-60
2022/09/29 02:35:14;;;;;;;23.15;17.08;;;;;;;4.12;100.00;99878.19;5012098;28;20066;-60
2022/09/29 02:38:05;;;;;;;23.52;17.73;;;;;;;4.18;100.00;99908.00;5013377;28;20018;-61
2022/09/29 02:40:45;;;;;;;23.63;17.88;;;;;;;4.16;100.00;99893.75;5013255;28;20030;-60
2022/09/29 02:43:51;;;;;;;23.23;16.38;;;;;;;4.16;100.00;99899.25;5013106;28;20474;-60
2022/09/29 02:46:50;;;;;;;24.27;17.85;;;;;;;4.08;100.00;99891.66;5013640;28;20037;-60
2022/09/29 02:49:28;;;;;;;24.25;17.13;;;;;;;4.11;100.00;99896.56;5013227;28;20046;-60
2022/09/29 02:52:24;;;;;;;25.38;17.42;;;;;;;4.10;100.00;99900.38;5012980;28;20034;-61
2022/09/29 02:55:08;;;;;;;23.90;17.58;;;;;;;4.03;100.00;99887.03;5013219;28;20026;-60
2022/09/29 02:57:47;;;;;;;23.95;17.50;;;;;;;4.02;100.00;99895.53;5012930;28;20041;-60
2022/09/29 03:00:15;;;;;;;24.42;17.55;;;;;;;3.90;100.00;99888.50;5012451;28;20030;-60
2022/09/29 03:02:43;;;;;;;24.98;17.38;;;;;;;3.87;100.00;99891.00;5012528;28;20117;-61
2022/09/29 03:05:10;;;;;;;24.42;17.63;;;;;;;3.85;100.00;99882.25;5029852;28;20045;-60
2022/09/29 03:07:37;;;;;;;24.33;18.15;;;;;;;3.86;100.00;99895.66;5032036;28;20057;-61
2022/09/29 03:10:04;;;;;;;24.67;18.20;;;;;;;3.84;100.00;99894.28;5032021;28;20029;-59
2022/09/29 03:12:29;;;;;;;24.38;17.90;;;;;;;3.83;100.00;99901.69;5031879;28;20053;-59
2022/09/29 03:14:55;;;;;;;24.60;17.95;;;;;;;3.83;100.00;99901.69;5031846;28;20021;-59
2022/09/29 03:17:20;;;;;;;24.95;17.48;;;;;;;3.83;100.00;99895.38;5031678;28;20432;-59
2022/09/29 03:19:46;;;;;;;25.20;18.38;;;;;;;3.82;100.00;99893.78;5032362;28;20075;-59
2022/09/29 03:22:11;;;;;;;23.80;17.92;;;;;;;3.82;100.00;99891.84;5032517;28;20068;-59
2022/09/29 03:24:36;;;;;;;24.25;17.65;;;;;;;3.81;100.00;99889.41;5033171;28;20040;-59
2022/09/29 03:27:02;;;;;;;23.80;17.30;;;;;;;3.78;100.00;99892.69;5031440;28;20029;-59
2022/09/29 03:29:28;;;;;;;25.52;17.80;;;;;;;3.75;100.00;99891.34;5032141;28;20358;-60
2022/09/29 03:31:53;;;;;;;25.33;17.83;;;;;;;3.76;100.00;99893.00;5031797;28;20029;-59
2022/09/29 03:34:19;;;;;;;26.42;19.67;;;;;;;3.77;100.00;99888.31;5032026;28;20026;-60
2022/09/29 03:36:44;;;;;;;26.95;19.48;;;;;;;3.75;100.00;99881.22;5032024;28;20064;-60
2022/09/29 03:39:09;;;;;;;25.67;19.08;;;;;;;3.75;100.00;99894.09;5032736;28;20025;-59
2022/09/29 03:41:34;;;;;;;24.70;18.42;;;;;;;3.72;100.00;99891.91;5033004;28;20089;-59
2022/09/29 03:44:00;;;;;;;26.83;19.13;;;;;;;3.71;100.00;99888.38;5032134;28;20029;-60
2022/09/29 03:46:25;;;;;;;25.58;18.98;;;;;;;3.71;100.00;99890.28;5032065;28;20034;-59
2022/09/29 03:48:51;;;;;;;24.95;19.15;;;;;;;3.66;100.00;99885.66;5032474;28;20043;-60
2022/09/29 03:51:16;;;;;;;28.20;20.30;;;;;;;3.66;100.00;99888.38;5031709;28;20025;-59
2022/09/29 03:53:41;;;;;;;26.52;19.45;;;;;;;3.66;100.00;99899.31;5031410;28;20060;-59
2022/09/29 03:56:07;;;;;;;28.77;20.20;;;;;;;3.66;100.00;99893.06;5031431;28;20060;-59
2022/09/29 03:58:33;;;;;;;27.65;20.17;;;;;;;3.64;100.00;99896.06;5031208;28;20057;-59
2022/09/29 04:00:58;;;;;;;26.92;19.92;;;;;;;3.64;100.00;99898.78;5030302;28;20114;-60
2022/09/29 04:03:24;;;;;;;25.85;19.73;;;;;;;3.61;100.00;99902.09;5031783;28;20057;-59
2022/09/29 04:05:49;;;;;;;25.08;19.73;;;;;;;3.62;100.00;99900.19;5031835;28;20025;-59
2022/09/29 04:08:15;;;;;;;26.52;20.05;;;;;;;3.60;100.00;99903.22;5030178;28;20362;-60
2022/09/29 04:10:41;;;;;;;27.13;21.08;;;;;;;3.59;100.00;99901.56;5029505;28;20499;-60
2022/09/29 04:13:08;;;;;;;26.83;20.17;;;;;;;3.59;100.00;99905.09;5030634;28;20170;-60
2022/09/29 04:15:33;;;;;;;28.35;21.65;;;;;;;3.58;100.00;99905.41;5030909;28;20037;-60
2022/09/29 04:17:59;;;;;;;28.45;21.33;;;;;;;3.55;100.00;99908.69;5031359;28;20025;-61
2022/09/29 04:20:24;;;;;;;27.70;21.40;;;;;;;3.55;100.00;99912.25;5030955;28;20029;-61
2022/09/29 04:22:50;;;;;;;27.20;21.00;;;;;;;3.53;100.00;99913.66;5030933;28;20037;-61
2022/09/29 04:25:15;;;;;;;27.30;20.33;;;;;;;3.50;100.00;99920.47;5030888;28;20029;-60
2022/09/29 04:27:41;;;;;;;27.50;20.80;;;;;;;3.48;100.00;99928.16;5029914;28;20025;-62
2022/09/29 04:30:07;;;;;;;26.52;19.80;;;;;;;3.47;100.00;99929.25;5029151;28;20132;-61
2022/09/29 04:32:32;;;;;;;26.92;19.92;;;;;;;3.43;100.00;99917.22;5010695;28;20477;-60
2022/09/29 04:34:57;;;;;;;26.30;19.75;;;;;;;3.43;100.00;99926.28;5011097;28;20033;-60
2022/09/29 04:37:23;;;;;;;27.30;19.58;;;;;;;3.43;100.00;99928.16;5011588;28;20041;-60
2022/09/29 04:39:48;;;;;;;27.55;20.73;;;;;;;3.43;100.00;99920.81;5011658;28;20465;-60
2022/09/29 04:42:14;;;;;;;29.08;20.23;;;;;;;3.41;100.00;99924.88;5010863;28;20026;-60
2022/09/29 04:44:39;;;;;;;27.73;20.15;;;;;;;3.37;100.00;99921.09;5010931;28;20109;-61
2022/09/29 04:47:04;;;;;;;28.33;20.80;;;;;;;3.37;100.00;99921.91;5011074;28;20414;-60
2022/09/29 04:49:30;;;;;;;27.67;20.85;;;;;;;3.37;100.00;99932.03;5011022;28;20026;-61
2022/09/29 04:51:55;;;;;;;26.90;20.20;;;;;;;3.32;100.00;99926.56;5011065;28;20025;-61
2022/09/29 04:54:20;;;;;;;27.27;20.48;;;;;;;3.29;100.00;99919.75;5011479;28;20030;-61
2022/09/29 04:56:49;;;;;;;29.05;21.02;;;;;;;3.30;100.00;99929.59;5010663;28;20054;-61
2022/09/29 04:59:16;;;;;;;28.17;20.23;;;;;;;3.30;100.00;99935.06;5010573;28;20030;-59
2022/09/29 05:01:42;;;;;;;28.30;20.40;;;;;;;3.26;100.00;99943.00;5010604;28;20034;-60
2022/09/29 05:04:08;;;;;;;27.65;21.17;;;;;;;3.26;100.00;99939.44;5011393;28;20349;-60
2022/09/29 05:06:38;;;;;;;26.58;20.35;;;;;;;3.23;100.00;99937.28;5011369;28;20084;-59
2022/09/29 05:09:06;;;;;;;26.05;20.48;;;;;;;3.22;100.00;99943.84;5011600;28;20069;-60
2022/09/29 05:11:31;;;;;;;26.67;20.70;;;;;;;3.20;100.00;99949.59;5011769;28;20045;-59
2022/09/29 05:13:57;;;;;;;28.02;21.45;;;;;;;3.19;100.00;99947.13;5014819;28;20030;-60
2022/09/29 05:16:23;;;;;;;28.67;21.35;;;;;;;3.17;100.00;99950.16;5014830;28;20537;-60
2022/09/29 05:18:49;;;;;;;27.05;20.90;;;;;;;3.14;100.00;99939.78;5015123;28;20038;-59
2022/09/29 05:21:15;;;;;;;29.73;21.13;;;;;;;3.12;100.00;99944.69;5015319;28;20032;-59
2022/09/29 05:23:41;;;;;;;29.08;21.00;;;;;;;3.12;100.00;99947.41;5014907;28;20105;-59
2022/09/29 05:26:10;;;;;;;28.83;20.27;;;;;;;3.10;100.00;99955.09;5015045;28;20030;-59
2022/09/29 05:28:37;;;;;;;28.80;20.63;;;;;;;3.09;100.00;99954.28;5028164;28;20433;-59
2022/09/29 05:31:04;;;;;;;29.88;20.85;;;;;;;3.10;100.00;99963.31;5033307;28;20025;-59
2022/09/29 05:33:29;;;;;;;28.17;20.80;;;;;;;3.09;100.00;99964.41;5033626;28;20036;-59
2022/09/29 05:35:55;;;;;;;28.13;20.50;;;;;;;3.10;100.00;99963.31;5034208;28;20030;-59
2022/09/29 05:38:21;;;;;;;28.73;20.38;;;;;;;3.08;100.00;99966.28;5034798;28;20033;-59
2022/09/29 05:40:47;;;;;;;29.27;20.80;;;;;;;3.06;100.00;99967.69;5035220;28;20030;-60
2022/09/29 05:43:12;;;;;;;28.42;20.48;;;;;;;3.08;100.00;99974.50;5034489;28;20460;-59
2022/09/29 05:45:37;;;;;;;29.17;21.38;;;;;;;3.08;100.00;99976.41;5034767;28;20119;-60
2022/09/29 05:48:03;;;;;;;28.00;20.75;;;;;;;3.07;100.00;99975.59;5032843;28;20104;-59
2022/09/29 05:50:28;;;;;;;28.65;21.05;;;;;;;3.11;100.00;99982.16;5033016;28;20029;-60
2022/09/29 05:52:54;;;;;;;28.55;21.08;;;;;;;3.15;100.00;99981.59;5033987;28;20026;-60
2022/09/29 05:55:19;;;;;;;27.80;21.00;;;;;;;3.16;100.00;99984.03;5033163;28;20435;-60
2022/09/29 05:57:48;;;;;;;29.08;21.17;;;;;;;3.18;100.00;99987.31;5032434;28;20064;-60
2022/09/29 06:00:14;;;;;;;29.52;21.60;;;;;;;3.18;100.00;99978.28;5033772;28;20026;-60
2022/09/29 06:02:39;;;;;;;29.60;21.05;;;;;;;3.19;100.00;99986.22;5033718;28;20048;-60
2022/09/29 06:05:05;;;;;;;29.25;21.60;;;;;;;3.21;100.00;99984.03;5032867;28;20076;-60
2022/09/29 06:07:30;;;;;;;32.75;21.02;;;;;;;3.16;100.00;99967.66;5032823;28;20124;-62
2022/09/29 06:09:55;;;;;;;30.27;21.30;;;;;;;3.25;100.00;99987.03;5031770;28;20179;-60
2022/09/29 06:12:21;;;;;;;30.02;21.17;;;;;;;3.29;100.00;99985.38;5031706;28;20151;-60
2022/09/29 06:14:46;;;;;;;28.90;21.83;;;;;;;3.35;100.00;99991.63;5031959;28;20374;-60
2022/09/29 06:17:11;;;;;;;31.77;21.40;;;;;;;3.35;100.00;99989.75;5032060;28;20026;-62
2022/09/29 06:19:37;;;;;;;29.42;20.35;;;;;;;3.39;100.00;99993.53;5031805;28;20485;-60
2022/09/29 06:22:02;;;;;;;31.40;23.67;;;;;;;3.46;100.00;99997.88;5032599;28;20036;-60
2022/09/29 06:24:27;;;;;;;30.98;22.48;;;;;;;3.50;100.00;100002.50;5033268;28;20026;-60
2022/09/29 06:26:53;;;;;;;30.88;21.40;;;;;;;3.55;100.00;99999.78;5033622;28;20457;-60
2022/09/29 06:29:18;;;;;;;31.42;20.90;;;;;;;3.62;100.00;99998.63;5034063;28;20030;-60
2022/09/29 06:31:43;;;;;;;31.95;21.50;;;;;;;3.65;100.00;99998.09;5012623;28;20026;-59
2022/09/29 06:34:09;;;;;;;29.85;21.65;;;;;;;3.67;100.00;100004.09;4992935;28;20038;-60
2022/09/29 06:39:24;;;;;;;34.08;24.50;;;;;;;3.81;100.00;100012.53;4992792;28;20042;-59
2022/09/29 06:41:53;;;;;;;33.17;23.15;;;;;;;3.85;100.00;100008.94;4992605;28;20375;-59
2022/09/29 06:44:20;;;;;;;35.45;27.27;;;;;;;3.92;100.00;100016.00;4992698;28;20034;-59
2022/09/29 06:46:47;;;;;;;32.22;24.65;;;;;;;4.00;100.00;100023.63;4992458;28;20204;-60
2022/09/29 06:49:14;;;;;;;31.30;22.92;;;;;;;4.06;100.00;100022.50;4992180;28;20050;-60
2022/09/29 06:51:40;;;;;;;31.42;23.25;;;;;;;4.08;100.00;100025.75;4992016;28;20105;-60
2022/09/29 06:54:05;;;;;;;30.95;22.75;;;;;;;4.17;100.00;100026.81;4992478;28;20422;-60
2022/09/29 06:56:31;;;;;;;32.60;23.73;;;;;;;4.22;100.00;100031.44;4992460;28;20034;-60
2022/09/29 06:58:56;;;;;;;34.08;24.58;;;;;;;4.28;100.00;100029.47;4992355;28;20084;-60
2022/09/29 07:01:21;;;;;;;33.50;24.48;;;;;;;4.34;100.00;100037.38;4991650;28;20037;-61
2022/09/29 07:03:47;;;;;;;35.65;25.85;;;;;;;4.38;100.00;100037.63;5006605;28;20374;-59
2022/09/29 07:06:12;;;;;;;40.17;29.35;;;;;;;4.44;100.00;100039.22;4992164;28;20034;-60
2022/09/29 07:08:38;;;;;;;34.35;25.33;;;;;;;4.49;100.00;100038.38;4992080;28;20053;-60
2022/09/29 07:11:06;;;;;;;34.92;24.52;;;;;;;4.52;100.00;100029.59;4992809;28;20489;-60
2022/09/29 07:13:32;;;;;;;33.90;24.90;;;;;;;4.62;100.00;100043.22;4992363;28;20058;-61
2022/09/29 07:16:06;;;;;;;33.58;24.05;;;;;;;4.70;100.00;100044.53;4992375;28;20022;-60
2022/09/29 07:18:34;;;;;;;35.60;25.15;;;;;;;4.78;100.00;100054.03;4992391;28;20026;-61
2022/09/29 07:21:00;;;;;;;35.97;25.88;;;;;;;4.83;100.00;100052.06;4992401;28;20033;-60
2022/09/29 07:23:26;;;;;;;36.40;25.65;;;;;;;4.87;100.00;100043.28;4992100;28;20492;-59
2022/09/29 07:25:51;;;;;;;37.20;25.23;;;;;;;4.96;100.00;100053.31;4992750;28;20034;-63
2022/09/29 07:28:17;;;;;;;33.47;24.88;;;;;;;5.04;100.00;100060.13;4991990;28;20391;-60
2022/09/29 07:30:42;;;;;;;35.78;26.25;;;;;;;5.10;100.00;100058.97;4991991;28;20109;-59
2022/09/29 07:33:08;;;;;;;33.85;24.73;;;;;;;5.17;100.00;100053.13;4992960;28;20114;-60
2022/09/29 07:35:33;;;;;;;33.55;25.58;;;;;;;5.26;100.00;100056.09;4991126;28;20431;-60
2022/09/29 07:37:58;;;;;;;34.65;25.17;;;;;;;5.33;100.00;100055.75;5007635;28;20062;-60
2022/09/29 07:40:25;;;;;;;36.35;26.60;;;;;;;5.42;100.00;100062.22;4992944;28;20100;-59
2022/09/29 07:42:50;;;;;;;35.40;25.50;;;;;;;5.50;100.00;100066.25;4992972;28;20128;-60
2022/09/29 07:45:16;;;;;;;34.47;25.30;;;;;;;5.58;100.00;100065.59;4991542;28;20390;-60
2022/09/29 07:47:41;;;;;;;32.95;25.25;;;;;;;5.62;100.00;100066.66;4991942;28;20561;-59
2022/09/29 07:50:07;;;;;;;33.10;24.90;;;;;;;5.69;100.00;100055.34;4991678;28;20034;-60
2022/09/29 07:52:33;;;;;;;34.35;25.20;;;;;;;5.77;100.00;100069.22;4991676;28;20042;-60
2022/09/29 07:54:58;;;;;;;33.60;26.00;;;;;;;5.84;100.00;100063.38;4991877;28;20463;-60
2022/09/29 07:57:23;;;;;;;34.28;25.70;;;;;;;5.89;100.00;100068.81;4991294;28;20038;-60
2022/09/29 07:59:49;;;;;;;32.85;23.73;;;;;;;6.00;100.00;100066.78;4991245;28;20022;-60
2022/09/29 08:02:14;;;;;;;33.28;25.38;;;;;;;6.10;100.00;100074.06;4989836;28;20484;-59
2022/09/29 08:04:42;;;;;;;33.75;25.80;;;;;;;6.19;100.00;100071.47;4991494;28;20018;-60
2022/09/29 08:07:08;;;;;;;33.92;25.63;;;;;;;6.27;100.00;100070.81;4991930;28;20038;-59
2022/09/29 08:09:33;;;;;;;31.77;25.08;;;;;;;6.37;100.00;100087.16;4991366;28;20056;-59
2022/09/29 08:11:59;;;;;;;34.90;25.95;;;;;;;6.46;100.00;100090.06;4991356;28;20482;-60
2022/09/29 08:14:24;;;;;;;33.42;26.05;;;;;;;6.55;100.00;100091.03;4991375;28;20094;-60
2022/09/29 08:16:49;;;;;;;35.38;25.48;;;;;;;6.64;100.00;100085.66;4989468;28;20038;-61
2022/09/29 08:19:15;;;;;;;31.70;24.45;;;;;;;6.69;100.00;100091.09;4991124;28;20137;-60
2022/09/29 08:21:40;;;;;;;33.67;24.15;;;;;;;6.76;100.00;100096.19;4990993;28;20035;-60
2022/09/29 08:24:06;;;;;;;33.35;26.23;;;;;;;6.83;100.00;100087.56;4990968;28;20130;-58
2022/09/29 08:26:34;;;;;;;34.40;25.70;;;;;;;6.89;100.00;100102.88;4990965;28;20081;-60
2022/09/29 08:29:03;;;;;;;32.70;24.58;;;;;;;6.96;100.00;100102.47;4990294;28;20524;-59
2022/09/29 08:31:29;;;;;;;34.13;25.67;;;;;;;7.07;100.00;100101.19;4990750;28;20124;-59
2022/09/29 08:33:57;;;;;;;36.85;26.80;;;;;;;7.19;100.00;100103.47;4996260;28;20030;-60
2022/09/29 08:36:22;;;;;;;35.95;25.77;;;;;;;7.30;100.00;100110.44;5010296;28;20037;-60
2022/09/29 08:38:50;;;;;;;32.25;25.42;;;;;;;7.42;100.00;100106.38;5008752;28;20033;-60
2022/09/29 08:41:50;;;;;;;34.13;24.80;;;;;;;7.51;100.00;100118.31;5011051;28;20034;-59
2022/09/29 08:44:36;;;;;;;28.70;22.52;;;;;;;7.58;100.00;100113.22;5010595;28;20042;-60
2022/09/29 08:47:22;;;;;;;33.13;23.95;;;;;;;7.67;100.00;100120.78;5010541;28;20167;-60
2022/09/29 08:50:04;;;;;;;32.70;23.85;;;;;;;7.71;100.00;100111.63;5010527;28;20034;-60
2022/09/29 08:52:34;;;;;;;31.45;24.05;;;;;;;7.71;100.00;100094.28;5008895;28;20060;-60
2022/09/29 08:55:18;;;;;;;31.35;23.48;;;;;;;7.95;100.00;100113.38;5009446;28;20036;-60
2022/09/29 08:57:48;;;;;;;30.92;23.73;;;;;;;8.09;100.00;100111.41;5009051;28;20038;-60
2022/09/29 09:00:15;;;;;;;30.55;22.67;;;;;;;8.20;100.00;100124.97;5010488;28;20715;-60
2022/09/29 09:03:03;;;;;;;31.60;22.65;;;;;;;8.28;100.00;100118.72;5007260;28;20044;-59
2022/09/29 09:05:42;;;;;;;29.38;21.08;;;;;;;8.38;100.00;100124.03;5010731;28;20014;-60
2022/09/29 09:08:21;;;;;;;29.02;22.23;;;;;;;8.49;100.00;100126.59;5011271;28;20087;-60
2022/09/29 09:11:02;;;;;;;29.85;21.88;;;;;;;8.50;100.00;100108.94;5010526;28;20116;-59
2022/09/29 09:13:40;;;;;;;29.55;21.48;;;;;;;8.71;100.00;100128.56;5009651;28;20568;-60
2022/09/29 09:16:14;;;;;;;28.90;21.52;;;;;;;8.78;100.00;100126.22;5009913;28;20140;-59
2022/09/29 09:18:51;;;;;;;29.10;22.05;;;;;;;8.91;100.00;100132.81;5008145;28;20038;-59
2022/09/29 09:21:34;;;;;;;28.20;19.48;;;;;;;8.96;100.00;100129.91;5007990;28;20045;-59
2022/09/29 09:24:14;;;;;;;26.88;19.17;;;;;;;9.15;100.00;100134.44;5008949;28;20113;-60
2022/09/29 09:26:45;;;;;;;27.95;20.23;;;;;;;9.31;100.00;100134.88;5009900;28;20022;-60
2022/09/29 09:29:33;;;;;;;24.48;17.25;;;;;;;9.36;98.81;100140.25;5009468;28;20446;-59
2022/09/29 09:32:20;;;;;;;26.00;18.13;;;;;;;9.47;99.70;100140.81;5009381;28;20029;-59
2022/09/29 09:35:24;;;;;;;23.17;15.80;;;;;;;9.50;97.76;100127.19;5008515;28;20539;-59
2022/09/29 09:37:52;;;;;;;23.95;16.50;;;;;;;9.65;96.41;100136.19;5009931;28;20034;-59
2022/09/29 09:40:26;;;;;;;23.10;15.95;;;;;;;9.72;94.54;100142.09;5010966;28;20033;-60
2022/09/29 09:43:02;;;;;;;24.02;16.88;;;;;;;9.77;94.87;100136.41;5009686;28;20044;-60
2022/09/29 09:45:56;;;;;;;26.40;17.10;;;;;;;9.79;95.11;100130.56;5011290;28;20030;-59
2022/09/29 09:48:30;;;;;;;22.20;15.10;;;;;;;9.94;94.41;100137.63;5010859;28;20049;-60
2022/09/29 09:50:59;;;;;;;23.42;15.55;;;;;;;9.96;93.31;100127.88;5009583;28;20041;-59
2022/09/29 09:53:35;;;;;;;21.95;14.95;;;;;;;10.12;91.95;100152.31;5010865;28;20350;-59
2022/09/29 09:56:42;;;;;;;21.67;15.23;;;;;;;10.13;92.32;100138.16;5010947;28;20119;-59
2022/09/29 09:59:29;;;;;;;22.05;15.13;;;;;;;10.30;92.18;100151.22;5012434;28;20439;-59
2022/09/29 10:01:55;;;;;;;23.35;15.45;;;;;;;10.37;91.08;100148.03;5013219;28;20088;-59
2022/09/29 10:04:22;;;;;;;22.80;15.10;;;;;;;10.40;89.67;100150.13;5013629;28;20014;-59
2022/09/29 10:06:48;;;;;;;21.10;14.68;;;;;;;10.43;89.72;100149.50;5014010;28;20062;-59
2022/09/29 10:09:14;;;;;;;22.50;14.80;;;;;;;10.47;89.30;100152.44;5013275;28;20025;-58
2022/09/29 10:11:40;;;;;;;21.23;13.50;;;;;;;10.49;89.18;100147.41;5013384;28;20026;-59
2022/09/29 10:14:14;;;;;;;22.17;13.43;;;;;;;10.59;87.83;100152.63;5014058;28;20456;-58
2022/09/29 10:16:50;;;;;;;22.20;14.55;;;;;;;10.69;89.16;100157.00;5013769;28;20044;-59
2022/09/29 10:19:42;;;;;;;22.75;14.45;;;;;;;10.81;88.89;100155.56;5013525;28;20088;-59
2022/09/29 10:22:13;;;;;;;20.73;14.02;;;;;;;10.87;87.46;100162.56;5013698;28;20030;-59
2022/09/29 10:24:39;;;;;;;22.13;13.48;;;;;;;10.95;86.28;100163.72;5012244;28;20068;-59
2022/09/29 10:27:05;;;;;;;21.65;13.70;;;;;;;10.93;85.38;100156.53;5011822;28;20408;-59
2022/09/29 10:29:35;;;;;;;21.42;13.88;;;;;;;10.97;85.33;100170.53;5013183;28;20029;-59
2022/09/29 10:32:21;;;;;;;21.77;14.20;;;;;;;11.05;87.00;100169.72;5013337;28;20033;-59
2022/09/29 10:34:53;;;;;;;22.55;14.50;;;;;;;11.03;84.93;100151.81;5013239;28;20105;-60
2022/09/29 10:37:33;;;;;;;21.45;13.80;;;;;;;11.21;84.84;100158.97;5013541;28;20021;-60
2022/09/29 10:40:22;;;;;;;21.40;13.77;;;;;;;11.29;84.95;100162.06;5013372;28;20123;-59
2022/09/29 10:42:50;;;;;;;21.67;13.65;;;;;;;11.29;83.60;100159.31;5004100;28;20514;-59
2022/09/29 10:45:20;;;;;;;21.40;13.90;;;;;;;11.28;82.78;100155.72;4998270;28;20030;-59
2022/09/29 10:48:12;;;;;;;21.45;13.88;;;;;;;11.43;83.24;100167.44;4993552;28;20045;-59
2022/09/29 10:50:50;;;;;;;20.95;13.57;;;;;;;11.43;82.42;100161.91;4988139;28;20124;-59
2022/09/29 10:53:40;;;;;;;20.23;13.02;;;;;;;11.60;82.07;100164.63;4998773;28;20418;-60
2022/09/29 10:56:19;;;;;;;18.80;12.25;;;;;;;11.64;80.93;100154.50;5004328;28;20024;-60
2022/09/29 10:58:53;;;;;;;19.85;12.18;;;;;;;11.84;79.73;100166.00;5002739;28;20021;-61
2022/09/29 11:01:19;;;;;;;19.20;12.63;;;;;;;11.96;79.19;100168.06;5002685;28;20034;-61
2022/09/29 11:04:02;;;;;;;18.83;12.13;;;;;;;12.10;78.55;100162.34;5000294;28;20023;-61
2022/09/29 11:06:32;;;;;;;18.27;11.10;;;;;;;12.21;77.55;100165.56;5000450;28;20121;-60
2022/09/29 11:09:01;;;;;;;17.70;9.80;;;;;;;12.20;74.85;100147.28;5003222;28;20036;-60
2022/09/29 11:11:28;;;;;;;16.40;10.10;;;;;;;12.32;74.68;100162.06;4999710;28;20450;-60
2022/09/29 11:13:55;;;;;;;18.80;10.18;;;;;;;12.43;72.37;100170.00;5002997;28;20034;-61
2022/09/29 11:16:32;;;;;;;16.95;10.25;;;;;;;12.44;73.81;100153.03;5000999;28;20034;-62
2022/09/29 11:19:04;;;;;;;17.13;10.10;;;;;;;12.54;74.20;100173.19;5000511;28;20057;-61
2022/09/29 11:21:29;;;;;;;16.55;10.52;;;;;;;12.48;73.76;100178.13;5001903;28;20097;-61
2022/09/29 11:24:32;;;;;;;18.13;10.77;;;;;;;12.55;74.50;100170.09;5002731;28;20469;-61
2022/09/29 11:27:11;;;;;;;19.02;11.38;;;;;;;12.61;71.43;100176.28;5011421;28;20104;-61
2022/09/29 11:30:02;;;;;;;18.52;11.55;;;;;;;12.75;73.30;100179.59;5012553;28;20059;-60
2022/09/29 11:32:40;;;;;;;18.67;11.70;;;;;;;12.90;72.25;100180.97;5012177;28;20034;-62